메인 페이지
METAR-TAF:

METAR-TAF

공항 :

Roswell International Air Center

로스웰, 뉴멕시코, 미국

위도: 33-18-29N, 경도: 104-30-28W, 고도: 1118m

현재 날씨관측

예보는 1 시간 14분 전, 05:51시(UTC)에 발표되었습니다.
남남동17kt, 순간 최대 풍속 28kt
온도 31°C
습도 36%
기압 1008 hPa
시정: 12.9km
고도 700ft 상공 구름 조금

METAR: KROW 170551Z AUTO 16017G28KT 8SM FEW007 31/14 A2976 RMK AO2 PK WND 16037/0534 SLP994 T03110139 10406 20306 53019

시각: 01:05 (07:05 UTC)

예보

예보는 1 시간 22분 전, 05:43시(UTC)에 발표되었습니다.
예보 대상 시간: 17일 06시부터 18일 06시까지 (UTC)
남남동17kt, 순간 최대 풍속 27kt
시정: 10km
맑음
일시적
17일 06시부터 17일 08시까지 (UTC)
남남동23kt, 순간 최대 풍속 37kt
시정: 6.4km
고도 700ft 상공 구름 보통
날린먼지
17일 1000시부터 (UTC)
11kt
시정: 10km
맑음
17일 1900시부터 (UTC)
남남서20kt, 순간 최대 풍속 32kt
시정: 10km
맑음
18일 0300시부터 (UTC)
14kt
시정: 10km
맑음

TAF: KROW 170543Z 1706/1806 16017G27KT P6SM SKC TEMPO 1706/1708 16023G37KT 4SM BLDU SCT007 FM171000 17011KT P6SM SKC FM171900 20020G32KT P6SM SKC FM180300 18014KT P6SM SKC

4,000개 이상의 공항 관측 자료 및 예보 (METAR 및 TAF 보고).

지도상에서 검색 가능한 기상관측소가 노란 점과 빨간 점으로 표시되어 있습니다.

기상관측소 명을 보려면 표시 위로 마우스를 이동하세요.

날씨 관측과 예보를 보려면 클릭하세요.

지도 변경 : 확대하려면 엑스 표시가 있는 녹색 버튼, 축소하려면 빼기 표시가 있는 녹색 버튼, 다음 페이지의 지도를 보려면 녹색 화살표를 클릭하세요.


METAR-TAF: